Terminal Aerodrome Forecast
Issued by NWS

Home | Current Version | Previous Version | Text Only | Print | Product List | Glossary On
Versions: 1 2 3 4 5 6 7 8 9 10 11 12 13 14
000
FTUS42 KTAE 221900 AAA
TAFVLD
TAF AMD
KVLD 221931Z 2220/2318 13005KT 3SM -RA BR OVC004
     FM230000 14006KT 1/4SM -RA FG OVC001
     FM231500 17007KT 1/2SM FG OVC001=

USA.gov is the U.S. government's official web portal to all federal, state and local government web resources and services.